ENALENVA

Guest
Details From ENAL - Ålesund Lufthavn, Vigra
To ENVA - Vaernes
Flight Number -
Tags Routegen Generated
Created
Modified
Stats Distance 141 nm / 260 km
Max Altitude 600 ft / 183 m
Waypoints 6
Social Downloads 5
Likes 0
Share VATSIM

Download

Looking for another format? Having issues loading an existing format? Contact us
Advertisement - Login to hide

Notes

Departing runway 6 ENAL. Arriving runway 9 ENVA.

Route

ENAL +62.60_+006.27 +62.93_+007.88 +63.44_+010.61 +63.46_+010.73 ENVA

ID Type Via Altitude Latitude Longitude Leg Dist Tot Dist Heading (true) Name
O ENAL APT - 600 ft / 183 m 62.56481˚ 6.13049˚ - 0 nm - -
+62.60_+006.27 LATLON - 600 ft / 183 m 62.59572˚ 6.27257˚ 4 nm 4 nm 65° / 65° -
+62.93_+007.88 LATLON - 600 ft / 183 m 62.92836˚ 7.88313˚ 48 nm 52 nm 65° / 66° -
+63.44_+010.61 LATLON - 600 ft / 183 m 63.43828˚ 10.60549˚ 79 nm 132 nm 66° / 69° -
+63.46_+010.73 LATLON - 600 ft / 183 m 63.45789˚ 10.72735˚ 3 nm 136 nm 70° / 70° -
O ENVA APT - 0 ft / 0 m 63.45766˚ 10.88929˚ 4 nm 140 nm 90° / 90° -

Altitude Profile

Advertisement - Login to hide

ENAL

Details ICAO ENAL (AES)
Name Alesund lufthavn - Vigra
Region Norway
Timezone Europe/Oslo (UTC+1.0)
Stats Elevation 69 ft / 21 m (AMSL)
Location 62.560371° 6.110165°
Runways 1
Magnetic Variation 1.161° E

METAR

ENAL 121750Z 18007KT 9999 SCT031 BKN061 03/M02 Q0993

Decode

TAF

Not found

Departure Runways

ID Width Length Bearing (true) Bearing (mag) Surface Threshold Offset Overrun Length
07 148 ft / 45 m 7,563 ft / 2,305 m 64.61° 63.45° Asphalt 492 ft / 150 m 0 ft / 0 m
25 148 ft / 45 m 7,563 ft / 2,305 m 244.65° 243.49° Asphalt 758 ft / 231 m 0 ft / 0 m

ENVA

Details ICAO ENVA (TRD)
Name Vaernes
Region Norway
Timezone Europe/Oslo (UTC+1.0)
Stats Elevation 56 ft / 17 m (AMSL)
Location 63.457605° 10.917980°
Runways 1
Magnetic Variation 3.494° E

METAR

ENVA 121750Z 13008KT 9999 VCSH FEW020 SCT045 BKN061 M07/M09 Q0993 TEMPO 1200 SHSN VV008 RMK WIND 670FT 16005KT

Decode

TAF

TAF ENVA 121700Z 1218/1318 12007KT 9999 FEW015 BKN030 TEMPO 1218/1307 0800 SHSN VV005 BECMG 1221/1223 24012KT TEMPO 1223/1305 26015G25KT BECMG 1307/1309 12007KT

Decode

Destination Runways

ID Width Length Bearing (true) Bearing (mag) Surface Threshold Offset Overrun Length
09 148 ft / 45 m 9,356 ft / 2,852 m 90.21° 86.72° Asphalt 984 ft / 300 m 0 ft / 0 m
27 148 ft / 45 m 9,356 ft / 2,852 m 270.26° 266.77° Asphalt 689 ft / 210 m 0 ft / 0 m

Approach Navaids

Runway Type Ident Frequency Range Bearing (true) Bearing (mag) Slope Elevation
09 Localiser TO 110.30 MHz 18 nm / 33 km 90.26° 86.77° - 31 ft / 9 m (AMSL)
09 Glidescope TO 110.30 MHz 10 nm / 19 km 90.23° 86.74° 3.00° 56 ft / 17 m (AMSL)
09 DME TO 110.30 MHz 18 nm / 33 km - - - 31 ft / 9 m (AMSL)
27 Localiser TD 109.90 MHz 18 nm / 33 km 270.20° 266.71° - 56 ft / 17 m (AMSL)
27 Glidescope TD 109.90 MHz 10 nm / 19 km 270.23° 266.74° 3.40° 56 ft / 17 m (AMSL)
27 DME TD 109.90 MHz 18 nm / 33 km - - - 78 ft / 24 m (AMSL)

Popular Alternatives